createdAt,value
2019-04-25T00:01:15.179Z,7.60
2019-04-25T00:03:45.111Z,8.10
2019-04-25T00:06:15.221Z,8.18
2019-04-25T00:08:45.322Z,7.55
2019-04-25T00:11:16.360Z,7.97
2019-04-25T00:13:45.991Z,8.48
2019-04-25T00:16:17.417Z,8.45
2019-04-25T00:18:46.979Z,8.03
2019-04-25T00:21:31.786Z,7.95
2019-04-25T00:24:03.222Z,8.13
2019-04-25T00:26:44.989Z,8.00
2019-04-25T00:29:16.013Z,8.70
2019-04-25T00:31:45.858Z,8.75
2019-04-25T00:34:15.428Z,8.95
2019-04-25T00:36:45.599Z,8.85
2019-04-25T00:39:16.473Z,8.60
2019-04-25T00:41:46.371Z,8.43
2019-04-25T00:44:16.521Z,8.90
2019-04-25T00:46:48.772Z,8.38
2019-04-25T00:49:18.181Z,8.78
2019-04-25T00:51:48.283Z,8.65
2019-04-25T00:54:17.942Z,8.70
2019-04-25T00:56:48.249Z,8.58
2019-04-25T00:59:22.018Z,9.18
2019-04-25T01:02:02.037Z,8.53
2019-04-25T01:04:33.696Z,8.20
2019-04-25T01:07:03.552Z,8.75
2019-04-25T01:09:33.216Z,8.98
2019-04-25T01:12:04.074Z,8.50
2019-04-25T01:14:34.124Z,8.15
2019-04-25T01:17:03.530Z,8.85
2019-04-25T01:19:45.701Z,9.05
2019-04-25T01:22:16.202Z,8.40
2019-04-25T01:24:45.815Z,8.05
2019-04-25T01:27:15.406Z,8.53
2019-04-25T01:29:46.226Z,8.88
2019-04-25T01:32:18.558Z,8.23
2019-04-25T01:34:50.501Z,8.18
2019-04-25T01:37:38.426Z,8.20
2019-04-25T01:40:18.770Z,8.05
2019-04-25T01:42:55.877Z,7.62
2019-04-25T01:45:27.113Z,8.68
2019-04-25T01:47:56.670Z,8.05
2019-04-25T01:50:26.209Z,8.20
2019-04-25T01:52:56.589Z,8.63
2019-04-25T01:55:26.491Z,8.10
2019-04-25T01:57:56.015Z,8.10
2019-04-25T02:00:33.345Z,8.78
2019-04-25T02:03:04.477Z,8.50
2019-04-25T02:05:34.240Z,9.10
2019-04-25T02:08:04.404Z,8.20
2019-04-25T02:10:34.980Z,7.87
2019-04-25T02:13:12.033Z,8.98
2019-04-25T02:15:43.255Z,9.13
2019-04-25T02:18:13.706Z,8.80
2019-04-25T02:20:43.733Z,8.30
2019-04-25T02:23:14.126Z,8.08
2019-04-25T02:25:44.259Z,8.33
2019-04-25T02:28:15.877Z,8.68
2019-04-25T02:30:45.693Z,9.18
2019-04-25T02:33:15.274Z,8.38
2019-04-25T02:35:46.772Z,8.13
2019-04-25T02:38:16.969Z,8.68
2019-04-25T02:40:46.985Z,8.65
2019-04-25T02:43:16.493Z,8.40
2019-04-25T02:45:50.623Z,8.88
2019-04-25T02:48:30.765Z,9.08
2019-04-25T02:51:04.637Z,8.75
2019-04-25T02:53:37.374Z,8.93
2019-04-25T02:56:25.690Z,8.88
2019-04-25T02:58:37.101Z,8.25
2019-04-25T03:01:17.981Z,8.80
2019-04-25T03:03:40.367Z,7.65
2019-04-25T03:06:10.086Z,8.10
2019-04-25T03:08:40.005Z,8.35
2019-04-25T03:11:09.669Z,7.75
2019-04-25T03:13:39.207Z,8.30
2019-04-25T03:16:10.897Z,8.60
2019-04-25T03:18:41.780Z,8.25
2019-04-25T03:21:17.004Z,8.60
2019-04-25T03:23:46.382Z,8.45
2019-04-25T03:26:16.017Z,8.58
2019-04-25T03:28:45.636Z,9.18
2019-04-25T03:31:22.057Z,9.33
2019-04-25T03:33:46.456Z,9.45
2019-04-25T03:36:16.942Z,9.83
2019-04-25T03:38:46.804Z,9.25
2019-04-25T03:41:16.739Z,8.70
2019-04-25T03:43:46.270Z,8.95
2019-04-25T03:46:15.831Z,9.00
2019-04-25T03:48:45.313Z,9.15
2019-04-25T03:51:15.657Z,8.53
2019-04-25T03:53:45.811Z,9.43
2019-04-25T03:56:15.241Z,8.80
2019-04-25T03:58:44.839Z,9.35
2019-04-25T04:01:15.616Z,9.43
2019-04-25T04:03:45.293Z,9.23
2019-04-25T04:06:15.647Z,9.05
2019-04-25T04:08:45.389Z,8.98
2019-04-25T04:11:15.684Z,10.25
2019-04-25T04:13:45.477Z,10.18
2019-04-25T04:16:16.687Z,8.73
2019-04-25T04:18:48.170Z,9.23
2019-04-25T04:21:28.342Z,9.20
2019-04-25T04:23:59.452Z,9.23
2019-04-25T04:26:29.074Z,9.13
2019-04-25T04:28:58.578Z,9.05
2019-04-25T04:31:28.048Z,8.78
2019-04-25T04:33:57.615Z,9.40
2019-04-25T04:36:46.656Z,9.20
2019-04-25T04:39:16.871Z,9.33
2019-04-25T04:41:48.163Z,10.13
2019-04-25T04:44:18.739Z,9.93
2019-04-25T04:46:48.258Z,10.13
2019-04-25T04:49:18.466Z,10.10
2019-04-25T04:51:47.961Z,11.35
2019-04-25T04:54:17.370Z,11.28
2019-04-25T04:56:46.913Z,11.45
2019-04-25T04:59:16.624Z,11.50
2019-04-25T05:01:59.983Z,11.30
2019-04-25T05:04:31.037Z,11.45
2019-04-25T05:07:03.591Z,11.93
2019-04-25T05:09:33.526Z,11.53
2019-04-25T05:12:04.110Z,11.35
2019-04-25T05:14:33.826Z,11.70
2019-04-25T05:17:04.343Z,12.00
2019-04-25T05:19:33.877Z,11.97
2019-04-25T05:22:03.672Z,12.58
2019-04-25T05:24:33.875Z,12.15
2019-04-25T05:27:03.898Z,12.15
2019-04-25T05:29:34.054Z,12.23
2019-04-25T05:32:04.296Z,12.10
2019-04-25T05:34:34.538Z,11.97
2019-04-25T05:37:04.348Z,12.45
2019-04-25T05:39:33.966Z,13.05
2019-04-25T05:42:08.143Z,13.80
2019-04-25T05:44:37.758Z,13.50
2019-04-25T05:47:07.374Z,18.62
2019-04-25T05:49:36.933Z,15.98
2019-04-25T05:52:06.340Z,14.45
2019-04-25T05:54:35.762Z,13.90
2019-04-25T05:57:05.343Z,12.68
2019-04-25T05:59:35.004Z,13.13
2019-04-25T06:02:04.711Z,12.40
2019-04-25T06:04:34.270Z,10.95
2019-04-25T06:07:05.701Z,16.57
2019-04-25T06:09:36.974Z,21.15
2019-04-25T06:12:11.448Z,14.75
2019-04-25T06:14:40.944Z,13.70
2019-04-25T06:17:21.422Z,14.87
2019-04-25T06:19:55.359Z,15.40
2019-04-25T06:22:43.537Z,15.78
2019-04-25T06:25:16.373Z,16.23
2019-04-25T06:27:56.534Z,17.82
2019-04-25T06:30:20.468Z,16.17
2019-04-25T06:32:50.136Z,15.88
2019-04-25T06:35:21.017Z,15.18
2019-04-25T06:37:50.892Z,16.23
2019-04-25T06:40:20.847Z,14.68
2019-04-25T06:42:50.906Z,17.35
2019-04-25T06:45:40.089Z,16.32
2019-04-25T06:48:17.171Z,15.18
2019-04-25T06:50:46.673Z,15.13
2019-04-25T06:53:16.108Z,14.53
2019-04-25T06:55:45.524Z,13.88
2019-04-25T06:58:15.032Z,12.70
2019-04-25T07:00:57.172Z,12.65
2019-04-25T07:03:15.844Z,12.55
2019-04-25T07:05:46.923Z,13.30
2019-04-25T07:08:16.324Z,12.15
2019-04-25T07:10:45.781Z,11.33
2019-04-25T07:13:15.176Z,10.78
2019-04-25T07:15:44.547Z,11.08
2019-04-25T07:18:14.065Z,10.32
2019-04-25T07:20:45.347Z,10.55
2019-04-25T07:23:15.196Z,10.40
2019-04-25T07:25:46.658Z,10.13
2019-04-25T07:28:27.597Z,10.20
2019-04-25T07:30:56.861Z,10.45
2019-04-25T07:33:31.244Z,10.08
2019-04-25T07:36:00.865Z,10.80
2019-04-25T07:38:49.859Z,10.82
2019-04-25T07:41:20.602Z,10.08
2019-04-25T07:43:50.303Z,10.55
2019-04-25T07:46:20.313Z,9.48
2019-04-25T07:48:49.923Z,10.18
2019-04-25T07:51:19.546Z,10.13
2019-04-25T07:53:49.030Z,11.15
2019-04-25T07:56:18.451Z,9.98
2019-04-25T07:58:52.118Z,10.45
2019-04-25T08:01:19.303Z,10.15
2019-04-25T08:03:48.924Z,10.55
2019-04-25T08:06:18.608Z,10.60
2019-04-25T08:08:49.660Z,10.28
2019-04-25T08:11:19.322Z,10.25
2019-04-25T08:13:56.277Z,11.08
2019-04-25T08:16:37.205Z,11.15
2019-04-25T08:19:07.128Z,11.03
2019-04-25T08:21:36.728Z,12.60
2019-04-25T08:24:06.304Z,11.80
2019-04-25T08:26:36.472Z,11.40
2019-04-25T08:29:06.917Z,11.60
2019-04-25T08:31:37.650Z,12.50
2019-04-25T08:34:07.415Z,11.85
2019-04-25T08:36:38.532Z,10.63
2019-04-25T08:39:09.815Z,10.80
2019-04-25T08:41:39.372Z,11.45
2019-04-25T08:44:09.355Z,11.50
2019-04-25T08:46:39.480Z,10.23
2019-04-25T08:49:28.658Z,12.18
2019-04-25T08:51:59.457Z,12.20
2019-04-25T08:54:31.031Z,11.15
2019-04-25T08:57:04.346Z,11.60
2019-04-25T08:59:50.512Z,10.75
2019-04-25T09:02:36.129Z,10.40
2019-04-25T09:05:25.949Z,9.25
2019-04-25T09:07:55.424Z,8.88
2019-04-25T09:10:25.107Z,9.20
2019-04-25T09:12:54.678Z,10.48
2019-04-25T09:15:24.344Z,9.78
2019-04-25T09:17:54.786Z,9.23
2019-04-25T09:20:24.781Z,9.70
2019-04-25T09:22:54.438Z,9.05
2019-04-25T09:25:24.579Z,8.90
2019-04-25T09:27:54.476Z,9.25
2019-04-25T09:30:24.244Z,9.45
2019-04-25T09:32:53.723Z,9.00
2019-04-25T09:35:24.811Z,9.63
2019-04-25T09:37:54.370Z,8.70
2019-04-25T09:40:24.206Z,7.90
2019-04-25T09:42:53.841Z,8.40
2019-04-25T09:45:28.268Z,8.90
2019-04-25T09:47:59.383Z,8.93
2019-04-25T09:50:30.446Z,8.63
2019-04-25T09:53:00.130Z,8.50
2019-04-25T09:55:44.129Z,8.55
2019-04-25T09:58:24.849Z,7.60
2019-04-25T10:00:58.646Z,8.80
2019-04-25T10:03:28.184Z,8.63
2019-04-25T10:05:57.812Z,8.38
2019-04-25T10:08:28.612Z,10.03
2019-04-25T10:10:58.355Z,8.80
2019-04-25T10:13:27.839Z,8.88
2019-04-25T10:16:06.247Z,9.23
2019-04-25T10:18:37.934Z,9.00
2019-04-25T10:21:11.303Z,8.95
2019-04-25T10:23:43.625Z,8.63
2019-04-25T10:26:14.075Z,10.15
2019-04-25T10:28:44.155Z,10.90
2019-04-25T10:31:14.653Z,11.00
2019-04-25T10:33:46.693Z,10.63
2019-04-25T10:36:15.905Z,7.83
2019-04-25T10:39:01.476Z,8.63
2019-04-25T10:41:17.913Z,7.90
2019-04-25T10:43:48.233Z,8.03
2019-04-25T10:46:18.632Z,7.55
2019-04-25T10:48:48.302Z,7.45
2019-04-25T10:51:17.863Z,6.95
2019-04-25T10:53:47.284Z,6.72
2019-04-25T10:56:16.992Z,7.03
2019-04-25T10:58:46.813Z,7.72
2019-04-25T11:01:16.580Z,7.45
2019-04-25T11:03:51.609Z,7.45
2019-04-25T11:06:23.692Z,7.58
2019-04-25T11:08:55.443Z,7.28
2019-04-25T11:11:24.276Z,8.80
2019-04-25T11:13:57.242Z,9.13
2019-04-25T11:16:26.915Z,8.88
2019-04-25T11:18:56.775Z,8.95
2019-04-25T11:21:26.313Z,8.50
2019-04-25T11:23:55.876Z,8.25
2019-04-25T11:26:26.104Z,7.92
2019-04-25T11:28:56.444Z,7.50
2019-04-25T11:31:27.445Z,9.13
2019-04-25T11:33:57.011Z,8.18
2019-04-25T11:36:26.648Z,7.40
2019-04-25T11:39:13.746Z,7.53
2019-04-25T11:41:46.067Z,7.28
2019-04-25T11:44:14.573Z,7.30
2019-04-25T11:46:46.423Z,6.95
2019-04-25T11:49:16.384Z,7.15
2019-04-25T11:51:47.050Z,6.58
2019-04-25T11:54:16.531Z,7.22
2019-04-25T11:56:47.097Z,7.22
2019-04-25T11:59:17.278Z,7.20
2019-04-25T12:01:47.641Z,8.00
2019-04-25T12:04:17.352Z,7.45
2019-04-25T12:06:47.570Z,7.15
2019-04-25T12:09:18.665Z,6.78
2019-04-25T12:11:48.598Z,7.42
2019-04-25T12:14:18.643Z,6.37
2019-04-25T12:16:50.147Z,7.40
2019-04-25T12:19:19.289Z,7.60
2019-04-25T12:21:48.822Z,7.15
2019-04-25T12:24:18.453Z,6.87
2019-04-25T12:26:48.716Z,7.78
2019-04-25T12:29:18.279Z,7.53
2019-04-25T12:31:47.721Z,8.63
2019-04-25T12:34:17.130Z,8.20
2019-04-25T12:36:47.550Z,8.30
2019-04-25T12:39:37.363Z,8.88
2019-04-25T12:42:07.443Z,11.15
2019-04-25T12:44:54.949Z,8.95
2019-04-25T12:47:29.868Z,8.53
2019-04-25T12:49:59.347Z,9.20
2019-04-25T12:52:28.916Z,9.60
2019-04-25T12:54:58.479Z,8.80
2019-04-25T12:57:28.809Z,8.53
2019-04-25T12:59:58.353Z,8.88
2019-04-25T13:02:27.843Z,8.98
2019-04-25T13:04:57.343Z,8.80
2019-04-25T13:07:26.713Z,9.40
2019-04-25T13:09:56.329Z,9.30
2019-04-25T13:12:26.118Z,8.73
2019-04-25T13:14:55.517Z,10.05
2019-04-25T13:17:25.142Z,9.28
2019-04-25T13:19:54.760Z,8.75
2019-04-25T13:22:25.490Z,10.00
2019-04-25T13:24:55.304Z,8.75
2019-04-25T13:27:27.591Z,8.78
2019-04-25T13:30:01.771Z,8.38
2019-04-25T13:35:11.082Z,10.28
2019-04-25T13:37:41.693Z,9.48
2019-04-25T13:40:30.585Z,8.10
2019-04-25T13:43:00.110Z,8.05
2019-04-25T13:45:30.018Z,7.95
2019-04-25T13:47:59.556Z,8.60
2019-04-25T13:50:29.711Z,12.60
2019-04-25T13:52:59.532Z,20.70
2019-04-25T13:55:28.950Z,11.28
2019-04-25T13:57:58.409Z,10.35
2019-04-25T14:00:28.561Z,8.68
2019-04-25T14:02:58.475Z,9.23
2019-04-25T14:05:29.060Z,11.43
2019-04-25T14:07:58.635Z,9.25
2019-04-25T14:10:28.470Z,8.53
2019-04-25T14:12:58.072Z,8.98
2019-04-25T14:15:27.804Z,9.73
2019-04-25T14:18:14.191Z,9.55
2019-04-25T14:20:51.078Z,10.82
2019-04-25T14:23:21.963Z,15.13
2019-04-25T14:25:52.356Z,14.93
2019-04-25T14:28:21.961Z,12.45
2019-04-25T14:30:51.640Z,11.85
2019-04-25T14:33:23.083Z,10.88
2019-04-25T14:35:53.491Z,10.35
2019-04-25T14:38:25.071Z,10.72
2019-04-25T14:40:54.725Z,11.43
2019-04-25T14:43:24.211Z,12.03
2019-04-25T14:45:56.177Z,12.80
2019-04-25T14:48:25.920Z,14.75
2019-04-25T14:50:55.398Z,14.15
2019-04-25T14:53:25.823Z,14.47
2019-04-25T14:56:15.265Z,14.23
2019-04-25T14:58:46.337Z,14.28
2019-04-25T15:01:17.850Z,13.80
2019-04-25T15:03:47.390Z,13.05
2019-04-25T15:06:16.863Z,14.23
2019-04-25T15:08:46.414Z,12.37
2019-04-25T15:11:15.839Z,12.23
2019-04-25T15:13:45.871Z,11.20
2019-04-25T15:16:15.418Z,10.50
2019-04-25T15:18:46.693Z,10.75
2019-04-25T15:21:18.619Z,9.65
2019-04-25T15:23:59.357Z,8.73
2019-04-25T15:26:18.520Z,8.85
2019-04-25T15:28:48.138Z,8.38
2019-04-25T15:31:17.817Z,8.65
2019-04-25T15:33:47.407Z,8.35
2019-04-25T15:36:18.639Z,7.47
2019-04-25T15:38:52.712Z,6.70
2019-04-25T15:41:26.845Z,5.87
2019-04-25T15:44:14.350Z,7.00
2019-04-25T15:46:45.567Z,6.78
2019-04-25T15:49:16.022Z,6.95
2019-04-25T15:51:45.705Z,6.75
2019-04-25T15:54:15.229Z,6.72
2019-04-25T15:56:44.777Z,7.30
2019-04-25T15:59:14.369Z,7.00
2019-04-25T16:01:43.870Z,7.22
2019-04-25T16:04:13.306Z,7.03
2019-04-25T16:06:42.863Z,7.50
2019-04-25T16:09:12.397Z,7.15
2019-04-25T16:11:41.971Z,7.37
2019-04-25T16:14:11.514Z,7.30
2019-04-25T16:16:41.109Z,6.33
2019-04-25T16:19:11.755Z,7.03
2019-04-25T16:21:42.220Z,6.30
2019-04-25T16:24:12.000Z,6.30
2019-04-25T16:26:42.399Z,5.60
2019-04-25T16:29:12.216Z,5.65
2019-04-25T16:31:41.862Z,4.70
2019-04-25T16:34:11.262Z,5.28
2019-04-25T16:36:41.761Z,5.60
2019-04-25T16:39:13.090Z,5.30
2019-04-25T16:41:44.264Z,5.03
2019-04-25T16:44:22.004Z,4.50
2019-04-25T16:46:52.211Z,3.98
2019-04-25T16:49:23.691Z,3.62
2019-04-25T16:51:53.120Z,4.12
2019-04-25T16:54:22.738Z,4.65
2019-04-25T16:56:52.372Z,4.00
2019-04-25T16:59:22.027Z,4.15
2019-04-25T17:01:51.484Z,3.58
2019-04-25T17:04:21.091Z,3.90
2019-04-25T17:06:50.752Z,3.40
2019-04-25T17:09:20.584Z,3.85
2019-04-25T17:11:50.064Z,3.52
2019-04-25T17:14:31.425Z,3.05
2019-04-25T17:17:15.035Z,3.02
2019-04-25T17:19:49.258Z,3.17
2019-04-25T17:22:18.885Z,3.10
2019-04-25T17:24:48.569Z,3.15
2019-04-25T17:27:18.307Z,3.20
2019-04-25T17:29:47.889Z,3.22
2019-04-25T17:32:31.701Z,3.08
2019-04-25T17:35:19.401Z,3.67
2019-04-25T17:37:50.615Z,3.52
2019-04-25T17:40:27.883Z,3.37
2019-04-25T17:42:57.429Z,3.20
2019-04-25T17:45:28.697Z,3.37
2019-04-25T17:47:58.257Z,3.22
2019-04-25T17:50:28.536Z,3.62
2019-04-25T17:52:59.422Z,3.30
2019-04-25T17:55:29.109Z,3.83
2019-04-25T17:57:58.722Z,5.40
2019-04-25T18:00:33.773Z,5.15
2019-04-25T18:03:04.221Z,5.78
2019-04-25T18:05:34.146Z,6.35
2019-04-25T18:08:05.034Z,6.60
2019-04-25T18:10:35.597Z,6.25
2019-04-25T18:13:06.134Z,14.80
2019-04-25T18:15:49.569Z,16.85
2019-04-25T18:18:32.462Z,10.90
2019-04-25T18:21:01.922Z,9.20
2019-04-25T18:23:38.703Z,7.30
2019-04-25T18:26:15.753Z,7.60
2019-04-25T18:28:49.594Z,7.00
2019-04-25T18:31:19.176Z,7.03
2019-04-25T18:33:50.242Z,6.08
2019-04-25T18:36:26.931Z,6.05
2019-04-25T18:38:58.180Z,5.37
2019-04-25T18:41:29.324Z,6.22
2019-04-25T18:44:00.432Z,5.80
2019-04-25T18:46:31.645Z,6.45
2019-04-25T18:49:02.163Z,6.70
2019-04-25T18:51:31.851Z,6.75
2019-04-25T18:54:03.987Z,13.60
2019-04-25T18:56:35.350Z,6.53
2019-04-25T18:59:18.695Z,6.42
2019-04-25T19:01:58.953Z,5.97
2019-04-25T19:04:30.107Z,6.35
2019-04-25T19:06:59.669Z,5.97
2019-04-25T19:09:31.925Z,5.75
2019-04-25T19:12:01.466Z,6.70
2019-04-25T19:14:30.999Z,7.58
2019-04-25T19:17:00.570Z,7.85
2019-04-25T19:19:30.589Z,6.92
2019-04-25T19:22:00.165Z,8.40
2019-04-25T19:24:29.861Z,9.40
2019-04-25T19:26:59.406Z,8.73
2019-04-25T19:29:29.039Z,10.65
2019-04-25T19:31:58.588Z,8.95
2019-04-25T19:34:28.161Z,7.33
2019-04-25T19:36:57.704Z,7.40
2019-04-25T19:39:28.965Z,7.42
2019-04-25T19:42:06.179Z,7.70
2019-04-25T19:44:36.960Z,8.50
2019-04-25T19:47:06.523Z,9.10
2019-04-25T19:49:36.152Z,7.35
2019-04-25T19:52:06.070Z,10.13
2019-04-25T19:54:35.635Z,8.48
2019-04-25T19:57:05.090Z,7.75
2019-04-25T19:59:34.722Z,6.83
2019-04-25T20:02:12.028Z,7.37
2019-04-25T20:04:44.302Z,6.72
2019-04-25T20:07:15.818Z,13.18
2019-04-25T20:09:47.074Z,19.30
2019-04-25T20:12:16.822Z,11.95
2019-04-25T20:14:47.158Z,9.10
2019-04-25T20:17:17.844Z,7.80
2019-04-25T20:19:47.696Z,8.40
2019-04-25T20:22:17.671Z,8.28
2019-04-25T20:24:48.391Z,7.97
2019-04-25T20:27:18.257Z,8.33
2019-04-25T20:29:48.449Z,10.43
2019-04-25T20:32:17.983Z,9.30
2019-04-25T20:34:47.583Z,18.12
2019-04-25T20:37:17.101Z,8.30
2019-04-25T20:39:47.283Z,22.58
2019-04-25T20:42:16.838Z,8.20
2019-04-25T20:44:47.713Z,8.40
2019-04-25T20:47:17.546Z,8.93
2019-04-25T20:49:47.069Z,6.05
2019-04-25T20:52:16.557Z,7.75
2019-04-25T20:54:46.452Z,8.13
2019-04-25T20:57:17.270Z,7.95
2019-04-25T20:59:47.249Z,7.80
2019-04-25T21:02:18.104Z,7.08
2019-04-25T21:04:48.745Z,7.20
2019-04-25T21:07:18.792Z,6.15
2019-04-25T21:09:48.974Z,6.90
2019-04-25T21:12:19.423Z,7.55
2019-04-25T21:15:05.340Z,6.28
2019-04-25T21:20:08.721Z,7.25
2019-04-25T21:22:38.408Z,7.17
2019-04-25T21:25:08.255Z,6.85
2019-04-25T21:27:37.846Z,6.83
2019-04-25T21:30:08.163Z,6.37
2019-04-25T21:32:53.095Z,7.28
2019-04-25T21:35:24.361Z,6.87
2019-04-25T21:37:53.949Z,7.22
2019-04-25T21:40:40.680Z,7.20
2019-04-25T21:43:12.608Z,6.97
2019-04-25T21:45:42.435Z,6.42
2019-04-25T21:48:12.293Z,6.87
2019-04-25T21:50:42.240Z,7.30
2019-04-25T21:53:12.039Z,7.20
2019-04-25T21:55:41.760Z,7.40
2019-04-25T21:58:11.544Z,8.63
2019-04-25T22:00:51.284Z,13.93
2019-04-25T22:03:23.973Z,12.75
2019-04-25T22:05:54.155Z,11.68
2019-04-25T22:08:24.856Z,10.48
2019-04-25T22:10:54.948Z,10.38
2019-04-25T22:13:25.718Z,9.48
2019-04-25T22:15:56.154Z,9.38
2019-04-25T22:18:26.841Z,9.28
2019-04-25T22:20:56.898Z,10.85
2019-04-25T22:23:26.420Z,11.88
2019-04-25T22:25:56.457Z,8.40
2019-04-25T22:28:27.083Z,9.00
2019-04-25T22:30:59.171Z,9.80
2019-04-25T22:33:39.432Z,10.53
2019-04-25T22:36:13.500Z,9.48
2019-04-25T22:38:43.174Z,8.45
2019-04-25T22:41:13.732Z,8.10
2019-04-25T22:43:45.207Z,6.80
2019-04-25T22:46:25.435Z,6.40
2019-04-25T22:48:49.140Z,7.25
2019-04-25T22:51:18.963Z,7.30
2019-04-25T22:53:48.710Z,8.20
2019-04-25T22:56:18.190Z,8.95
2019-04-25T22:58:47.744Z,8.90
2019-04-25T23:01:25.009Z,8.35
2019-04-25T23:03:56.109Z,8.35
2019-04-25T23:06:26.062Z,8.73
2019-04-25T23:08:55.596Z,8.68
2019-04-25T23:11:25.240Z,8.48
2019-04-25T23:13:55.201Z,8.53
2019-04-25T23:16:25.033Z,9.30
2019-04-25T23:18:54.592Z,10.30
2019-04-25T23:21:24.061Z,9.55
2019-04-25T23:23:53.622Z,9.03
2019-04-25T23:26:25.522Z,8.53
2019-04-25T23:28:59.619Z,8.85
2019-04-25T23:31:31.944Z,9.30
2019-04-25T23:34:01.902Z,8.43
2019-04-25T23:36:31.473Z,8.60
2019-04-25T23:39:01.039Z,8.25
2019-04-25T23:41:32.522Z,8.73
2019-04-25T23:44:02.066Z,8.73
2019-04-25T23:46:31.882Z,8.40
2019-04-25T23:49:01.313Z,9.03
2019-04-25T23:51:30.811Z,8.25
2019-04-25T23:54:00.826Z,8.08
2019-04-25T23:56:30.230Z,8.93
2019-04-25T23:59:00.173Z,9.48
